sensor_id;sensor_type;location;lat;lon;timestamp;P1;durP1;ratioP1;P2;durP2;ratioP2
71503;SDS011;59323;50.874;7.028;2023-05-14T00:00:38;12.18;;;6.65;;
71503;SDS011;59323;50.874;7.028;2023-05-14T00:03:03;11.07;;;6.40;;
71503;SDS011;59323;50.874;7.028;2023-05-14T00:05:28;11.67;;;6.40;;
71503;SDS011;59323;50.874;7.028;2023-05-14T00:07:54;13.13;;;6.57;;
71503;SDS011;59323;50.874;7.028;2023-05-14T00:10:19;9.90;;;6.13;;
71503;SDS011;59323;50.874;7.028;2023-05-14T00:12:45;10.40;;;6.18;;
71503;SDS011;59323;50.874;7.028;2023-05-14T00:15:11;13.33;;;7.23;;
71503;SDS011;59323;50.874;7.028;2023-05-14T00:17:36;10.63;;;6.45;;
71503;SDS011;59323;50.874;7.028;2023-05-14T00:20:02;11.63;;;7.00;;
71503;SDS011;59323;50.874;7.028;2023-05-14T00:22:31;10.65;;;6.40;;
71503;SDS011;59323;50.874;7.028;2023-05-14T00:24:57;11.37;;;6.43;;
71503;SDS011;59323;50.874;7.028;2023-05-14T00:27:22;11.63;;;6.47;;
71503;SDS011;59323;50.874;7.028;2023-05-14T00:29:47;12.10;;;6.90;;
71503;SDS011;59323;50.874;7.028;2023-05-14T00:32:13;12.13;;;7.13;;
71503;SDS011;59323;50.874;7.028;2023-05-14T00:34:38;13.90;;;7.60;;
71503;SDS011;59323;50.874;7.028;2023-05-14T00:37:03;14.30;;;7.47;;
71503;SDS011;59323;50.874;7.028;2023-05-14T00:39:29;13.30;;;7.23;;
71503;SDS011;59323;50.874;7.028;2023-05-14T00:41:54;10.98;;;6.60;;
71503;SDS011;59323;50.874;7.028;2023-05-14T00:44:19;13.27;;;6.73;;
71503;SDS011;59323;50.874;7.028;2023-05-14T00:46:45;11.57;;;6.90;;
71503;SDS011;59323;50.874;7.028;2023-05-14T00:49:10;11.37;;;6.33;;
71503;SDS011;59323;50.874;7.028;2023-05-14T00:51:36;12.10;;;6.85;;
71503;SDS011;59323;50.874;7.028;2023-05-14T00:54:05;12.23;;;7.10;;
71503;SDS011;59323;50.874;7.028;2023-05-14T00:56:33;11.13;;;7.15;;
71503;SDS011;59323;50.874;7.028;2023-05-14T00:58:58;11.25;;;7.35;;
71503;SDS011;59323;50.874;7.028;2023-05-14T01:01:24;11.27;;;6.80;;
71503;SDS011;59323;50.874;7.028;2023-05-14T01:03:52;11.75;;;7.00;;
71503;SDS011;59323;50.874;7.028;2023-05-14T01:09:14;12.43;;;7.38;;
71503;SDS011;59323;50.874;7.028;2023-05-14T01:11:53;11.55;;;6.90;;
71503;SDS011;59323;50.874;7.028;2023-05-14T01:17:07;10.88;;;6.43;;
71503;SDS011;59323;50.874;7.028;2023-05-14T01:22:05;10.27;;;5.90;;
71503;SDS011;59323;50.874;7.028;2023-05-14T01:24:30;10.75;;;7.20;;
71503;SDS011;59323;50.874;7.028;2023-05-14T01:26:57;9.20;;;5.90;;
71503;SDS011;59323;50.874;7.028;2023-05-14T01:29:30;11.13;;;6.55;;
71503;SDS011;59323;50.874;7.028;2023-05-14T01:32:00;10.15;;;6.18;;
71503;SDS011;59323;50.874;7.028;2023-05-14T01:34:30;10.57;;;6.40;;
71503;SDS011;59323;50.874;7.028;2023-05-14T01:36:56;11.83;;;7.30;;
71503;SDS011;59323;50.874;7.028;2023-05-14T01:39:22;11.05;;;6.63;;
71503;SDS011;59323;50.874;7.028;2023-05-14T01:41:49;11.88;;;6.18;;
71503;SDS011;59323;50.874;7.028;2023-05-14T01:44:16;10.65;;;6.63;;
71503;SDS011;59323;50.874;7.028;2023-05-14T01:46:42;10.13;;;6.13;;
71503;SDS011;59323;50.874;7.028;2023-05-14T01:49:07;10.57;;;6.83;;
71503;SDS011;59323;50.874;7.028;2023-05-14T01:51:33;12.40;;;6.73;;
71503;SDS011;59323;50.874;7.028;2023-05-14T01:53:58;11.50;;;6.77;;
71503;SDS011;59323;50.874;7.028;2023-05-14T01:56:23;12.17;;;6.50;;
71503;SDS011;59323;50.874;7.028;2023-05-14T01:58:49;18.33;;;7.30;;
71503;SDS011;59323;50.874;7.028;2023-05-14T02:01:15;14.87;;;7.70;;
71503;SDS011;59323;50.874;7.028;2023-05-14T02:03:40;17.43;;;8.17;;
71503;SDS011;59323;50.874;7.028;2023-05-14T02:06:06;13.73;;;8.23;;
71503;SDS011;59323;50.874;7.028;2023-05-14T02:08:31;13.70;;;7.67;;
71503;SDS011;59323;50.874;7.028;2023-05-14T02:10:57;13.83;;;7.87;;
71503;SDS011;59323;50.874;7.028;2023-05-14T02:13:23;13.25;;;8.63;;
71503;SDS011;59323;50.874;7.028;2023-05-14T02:15:49;14.80;;;7.60;;
71503;SDS011;59323;50.874;7.028;2023-05-14T02:18:14;13.93;;;8.53;;
71503;SDS011;59323;50.874;7.028;2023-05-14T02:20:40;14.27;;;8.50;;
71503;SDS011;59323;50.874;7.028;2023-05-14T02:23:05;16.43;;;8.63;;
71503;SDS011;59323;50.874;7.028;2023-05-14T02:25:30;14.77;;;8.57;;
71503;SDS011;59323;50.874;7.028;2023-05-14T02:27:56;14.93;;;9.07;;
71503;SDS011;59323;50.874;7.028;2023-05-14T02:30:21;12.57;;;7.77;;
71503;SDS011;59323;50.874;7.028;2023-05-14T02:32:46;15.93;;;7.90;;
71503;SDS011;59323;50.874;7.028;2023-05-14T02:35:12;12.70;;;7.87;;
71503;SDS011;59323;50.874;7.028;2023-05-14T02:37:37;13.97;;;7.80;;
71503;SDS011;59323;50.874;7.028;2023-05-14T02:40:02;14.33;;;7.60;;
71503;SDS011;59323;50.874;7.028;2023-05-14T02:42:28;13.45;;;7.80;;
71503;SDS011;59323;50.874;7.028;2023-05-14T02:44:53;12.70;;;7.63;;
71503;SDS011;59323;50.874;7.028;2023-05-14T02:47:19;15.07;;;7.70;;
71503;SDS011;59323;50.874;7.028;2023-05-14T02:49:44;11.20;;;7.10;;
71503;SDS011;59323;50.874;7.028;2023-05-14T02:52:09;11.90;;;6.87;;
71503;SDS011;59323;50.874;7.028;2023-05-14T02:54:35;14.07;;;7.33;;
71503;SDS011;59323;50.874;7.028;2023-05-14T02:57:00;14.87;;;7.37;;
71503;SDS011;59323;50.874;7.028;2023-05-14T02:59:26;11.23;;;6.40;;
71503;SDS011;59323;50.874;7.028;2023-05-14T03:01:51;13.10;;;6.70;;
71503;SDS011;59323;50.874;7.028;2023-05-14T03:04:17;12.10;;;7.28;;
71503;SDS011;59323;50.874;7.028;2023-05-14T03:06:42;11.60;;;6.83;;
71503;SDS011;59323;50.874;7.028;2023-05-14T03:09:07;12.40;;;7.43;;
71503;SDS011;59323;50.874;7.028;2023-05-14T03:11:33;11.17;;;6.13;;
71503;SDS011;59323;50.874;7.028;2023-05-14T03:13:59;11.82;;;6.65;;
71503;SDS011;59323;50.874;7.028;2023-05-14T03:16:25;12.20;;;6.80;;
71503;SDS011;59323;50.874;7.028;2023-05-14T03:18:50;10.07;;;5.87;;
71503;SDS011;59323;50.874;7.028;2023-05-14T03:21:16;11.50;;;6.87;;
71503;SDS011;59323;50.874;7.028;2023-05-14T03:23:41;13.52;;;6.90;;
71503;SDS011;59323;50.874;7.028;2023-05-14T03:26:06;12.57;;;6.90;;
71503;SDS011;59323;50.874;7.028;2023-05-14T03:28:32;12.73;;;7.20;;
71503;SDS011;59323;50.874;7.028;2023-05-14T03:30:57;11.37;;;7.03;;
71503;SDS011;59323;50.874;7.028;2023-05-14T03:33:23;10.97;;;6.40;;
71503;SDS011;59323;50.874;7.028;2023-05-14T03:35:48;11.48;;;6.50;;
71503;SDS011;59323;50.874;7.028;2023-05-14T03:38:13;12.83;;;6.90;;
71503;SDS011;59323;50.874;7.028;2023-05-14T03:40:39;13.67;;;6.30;;
71503;SDS011;59323;50.874;7.028;2023-05-14T03:43:04;12.03;;;7.40;;
71503;SDS011;59323;50.874;7.028;2023-05-14T03:45:30;14.20;;;7.10;;
71503;SDS011;59323;50.874;7.028;2023-05-14T03:47:56;12.35;;;7.20;;
71503;SDS011;59323;50.874;7.028;2023-05-14T03:50:21;13.13;;;7.30;;
71503;SDS011;59323;50.874;7.028;2023-05-14T03:52:49;13.45;;;8.00;;
71503;SDS011;59323;50.874;7.028;2023-05-14T03:55:16;12.85;;;7.20;;
71503;SDS011;59323;50.874;7.028;2023-05-14T03:57:42;13.18;;;7.45;;
71503;SDS011;59323;50.874;7.028;2023-05-14T04:00:08;12.20;;;7.70;;
71503;SDS011;59323;50.874;7.028;2023-05-14T04:02:34;13.65;;;7.63;;
71503;SDS011;59323;50.874;7.028;2023-05-14T04:04:59;10.87;;;6.73;;
71503;SDS011;59323;50.874;7.028;2023-05-14T04:07:24;11.13;;;6.90;;
71503;SDS011;59323;50.874;7.028;2023-05-14T04:09:50;10.73;;;6.67;;
71503;SDS011;59323;50.874;7.028;2023-05-14T04:12:16;10.95;;;6.90;;
71503;SDS011;59323;50.874;7.028;2023-05-14T04:14:41;10.43;;;6.60;;
71503;SDS011;59323;50.874;7.028;2023-05-14T04:17:06;11.47;;;6.70;;
71503;SDS011;59323;50.874;7.028;2023-05-14T04:19:31;10.97;;;6.30;;
71503;SDS011;59323;50.874;7.028;2023-05-14T04:21:57;13.30;;;7.70;;
71503;SDS011;59323;50.874;7.028;2023-05-14T04:24:22;12.40;;;7.40;;
71503;SDS011;59323;50.874;7.028;2023-05-14T04:26:47;15.35;;;6.88;;
71503;SDS011;59323;50.874;7.028;2023-05-14T04:29:13;11.73;;;6.80;;
71503;SDS011;59323;50.874;7.028;2023-05-14T04:31:38;11.87;;;6.87;;
71503;SDS011;59323;50.874;7.028;2023-05-14T04:34:04;13.70;;;7.83;;
71503;SDS011;59323;50.874;7.028;2023-05-14T04:36:29;13.83;;;6.90;;
71503;SDS011;59323;50.874;7.028;2023-05-14T04:38:55;12.00;;;7.50;;
71503;SDS011;59323;50.874;7.028;2023-05-14T04:41:26;12.40;;;7.43;;
71503;SDS011;59323;50.874;7.028;2023-05-14T04:43:54;14.23;;;7.95;;
71503;SDS011;59323;50.874;7.028;2023-05-14T04:46:20;15.50;;;9.32;;
71503;SDS011;59323;50.874;7.028;2023-05-14T04:48:45;12.57;;;7.60;;
71503;SDS011;59323;50.874;7.028;2023-05-14T04:51:10;12.87;;;7.73;;
71503;SDS011;59323;50.874;7.028;2023-05-14T04:53:36;14.67;;;7.73;;
71503;SDS011;59323;50.874;7.028;2023-05-14T04:56:01;14.02;;;8.00;;
71503;SDS011;59323;50.874;7.028;2023-05-14T04:58:26;13.97;;;8.37;;
71503;SDS011;59323;50.874;7.028;2023-05-14T05:00:53;13.17;;;7.70;;
71503;SDS011;59323;50.874;7.028;2023-05-14T05:03:18;14.23;;;8.13;;
71503;SDS011;59323;50.874;7.028;2023-05-14T05:05:44;14.70;;;8.80;;
71503;SDS011;59323;50.874;7.028;2023-05-14T05:08:09;14.47;;;8.23;;
71503;SDS011;59323;50.874;7.028;2023-05-14T05:10:35;13.00;;;7.90;;
71503;SDS011;59323;50.874;7.028;2023-05-14T05:13:00;12.83;;;7.77;;
71503;SDS011;59323;50.874;7.028;2023-05-14T05:15:26;13.73;;;8.30;;
71503;SDS011;59323;50.874;7.028;2023-05-14T05:17:51;15.40;;;7.53;;
71503;SDS011;59323;50.874;7.028;2023-05-14T05:20:16;11.65;;;7.18;;
71503;SDS011;59323;50.874;7.028;2023-05-14T05:22:42;14.23;;;7.30;;
71503;SDS011;59323;50.874;7.028;2023-05-14T05:25:08;15.20;;;8.27;;
71503;SDS011;59323;50.874;7.028;2023-05-14T05:27:33;11.65;;;7.32;;
71503;SDS011;59323;50.874;7.028;2023-05-14T05:30:02;14.40;;;8.17;;
71503;SDS011;59323;50.874;7.028;2023-05-14T05:32:28;12.88;;;7.32;;
71503;SDS011;59323;50.874;7.028;2023-05-14T05:34:53;12.87;;;7.50;;
71503;SDS011;59323;50.874;7.028;2023-05-14T05:37:18;12.33;;;7.67;;
71503;SDS011;59323;50.874;7.028;2023-05-14T05:39:44;13.20;;;7.27;;
71503;SDS011;59323;50.874;7.028;2023-05-14T05:42:09;11.77;;;7.03;;
71503;SDS011;59323;50.874;7.028;2023-05-14T05:44:34;12.27;;;7.27;;
71503;SDS011;59323;50.874;7.028;2023-05-14T05:47:00;11.67;;;6.93;;
71503;SDS011;59323;50.874;7.028;2023-05-14T05:49:25;12.93;;;6.67;;
71503;SDS011;59323;50.874;7.028;2023-05-14T05:51:51;13.75;;;6.72;;
71503;SDS011;59323;50.874;7.028;2023-05-14T05:54:17;9.93;;;6.60;;
71503;SDS011;59323;50.874;7.028;2023-05-14T05:56:42;10.75;;;6.70;;
71503;SDS011;59323;50.874;7.028;2023-05-14T05:59:07;9.40;;;6.30;;
71503;SDS011;59323;50.874;7.028;2023-05-14T06:01:33;12.00;;;6.13;;
71503;SDS011;59323;50.874;7.028;2023-05-14T06:03:59;9.95;;;6.30;;
71503;SDS011;59323;50.874;7.028;2023-05-14T06:06:24;9.70;;;6.00;;
71503;SDS011;59323;50.874;7.028;2023-05-14T06:08:49;9.67;;;6.00;;
71503;SDS011;59323;50.874;7.028;2023-05-14T06:11:15;11.90;;;6.30;;
71503;SDS011;59323;50.874;7.028;2023-05-14T06:13:40;9.98;;;6.00;;
71503;SDS011;59323;50.874;7.028;2023-05-14T06:16:06;10.97;;;5.77;;
71503;SDS011;59323;50.874;7.028;2023-05-14T06:18:31;9.53;;;6.57;;
71503;SDS011;59323;50.874;7.028;2023-05-14T06:20:57;11.37;;;6.00;;
71503;SDS011;59323;50.874;7.028;2023-05-14T06:23:24;9.93;;;6.30;;
71503;SDS011;59323;50.874;7.028;2023-05-14T06:25:50;11.85;;;6.07;;
71503;SDS011;59323;50.874;7.028;2023-05-14T06:28:15;8.83;;;4.67;;
71503;SDS011;59323;50.874;7.028;2023-05-14T06:30:41;11.68;;;7.05;;
71503;SDS011;59323;50.874;7.028;2023-05-14T06:33:06;11.90;;;6.73;;
71503;SDS011;59323;50.874;7.028;2023-05-14T06:35:32;12.07;;;7.17;;
71503;SDS011;59323;50.874;7.028;2023-05-14T06:37:58;10.32;;;6.43;;
71503;SDS011;59323;50.874;7.028;2023-05-14T06:40:23;9.60;;;6.60;;
71503;SDS011;59323;50.874;7.028;2023-05-14T06:42:49;10.73;;;6.33;;
71503;SDS011;59323;50.874;7.028;2023-05-14T06:45:14;11.60;;;6.63;;
71503;SDS011;59323;50.874;7.028;2023-05-14T06:47:39;9.87;;;5.83;;
71503;SDS011;59323;50.874;7.028;2023-05-14T06:50:05;10.40;;;5.70;;
71503;SDS011;59323;50.874;7.028;2023-05-14T06:52:31;11.30;;;6.53;;
71503;SDS011;59323;50.874;7.028;2023-05-14T06:54:56;10.23;;;6.17;;
71503;SDS011;59323;50.874;7.028;2023-05-14T06:57:21;14.93;;;7.20;;
71503;SDS011;59323;50.874;7.028;2023-05-14T06:59:46;11.60;;;7.30;;
71503;SDS011;59323;50.874;7.028;2023-05-14T07:02:12;14.77;;;6.70;;
71503;SDS011;59323;50.874;7.028;2023-05-14T07:04:37;11.55;;;7.35;;
71503;SDS011;59323;50.874;7.028;2023-05-14T07:07:03;10.80;;;6.13;;
71503;SDS011;59323;50.874;7.028;2023-05-14T07:09:29;10.00;;;6.60;;
71503;SDS011;59323;50.874;7.028;2023-05-14T07:11:55;11.32;;;6.30;;
71503;SDS011;59323;50.874;7.028;2023-05-14T07:14:20;10.67;;;5.97;;
71503;SDS011;59323;50.874;7.028;2023-05-14T07:16:45;10.27;;;6.20;;
71503;SDS011;59323;50.874;7.028;2023-05-14T07:19:11;9.97;;;6.20;;
71503;SDS011;59323;50.874;7.028;2023-05-14T07:21:36;9.52;;;5.88;;
71503;SDS011;59323;50.874;7.028;2023-05-14T07:24:02;11.33;;;6.23;;
71503;SDS011;59323;50.874;7.028;2023-05-14T07:26:27;10.77;;;6.20;;
71503;SDS011;59323;50.874;7.028;2023-05-14T07:28:53;10.90;;;6.17;;
71503;SDS011;59323;50.874;7.028;2023-05-14T07:31:18;9.95;;;6.30;;
71503;SDS011;59323;50.874;7.028;2023-05-14T07:33:43;9.40;;;5.83;;
71503;SDS011;59323;50.874;7.028;2023-05-14T07:36:09;12.00;;;6.73;;
71503;SDS011;59323;50.874;7.028;2023-05-14T07:38:34;11.17;;;5.87;;
71503;SDS011;59323;50.874;7.028;2023-05-14T07:40:59;10.70;;;6.07;;
71503;SDS011;59323;50.874;7.028;2023-05-14T07:43:25;9.50;;;6.10;;
71503;SDS011;59323;50.874;7.028;2023-05-14T07:45:50;8.63;;;5.70;;
71503;SDS011;59323;50.874;7.028;2023-05-14T07:48:15;8.63;;;6.03;;
71503;SDS011;59323;50.874;7.028;2023-05-14T07:50:41;8.43;;;5.00;;
71503;SDS011;59323;50.874;7.028;2023-05-14T07:53:06;9.40;;;5.50;;
71503;SDS011;59323;50.874;7.028;2023-05-14T07:55:32;8.18;;;4.70;;
71503;SDS011;59323;50.874;7.028;2023-05-14T07:57:57;9.90;;;4.93;;
71503;SDS011;59323;50.874;7.028;2023-05-14T08:00:22;9.03;;;4.63;;
71503;SDS011;59323;50.874;7.028;2023-05-14T08:02:48;8.20;;;5.17;;
71503;SDS011;59323;50.874;7.028;2023-05-14T08:05:14;7.82;;;5.05;;
71503;SDS011;59323;50.874;7.028;2023-05-14T08:07:39;8.60;;;5.57;;
71503;SDS011;59323;50.874;7.028;2023-05-14T08:10:05;9.93;;;5.10;;
71503;SDS011;59323;50.874;7.028;2023-05-14T08:12:31;7.13;;;4.30;;
71503;SDS011;59323;50.874;7.028;2023-05-14T08:14:57;7.90;;;4.20;;
71503;SDS011;59323;50.874;7.028;2023-05-14T08:17:22;8.73;;;4.30;;
71503;SDS011;59323;50.874;7.028;2023-05-14T08:19:47;7.17;;;4.50;;
71503;SDS011;59323;50.874;7.028;2023-05-14T08:22:13;10.10;;;4.80;;
71503;SDS011;59323;50.874;7.028;2023-05-14T08:24:39;8.87;;;4.10;;
71503;SDS011;59323;50.874;7.028;2023-05-14T08:27:04;6.90;;;4.23;;
71503;SDS011;59323;50.874;7.028;2023-05-14T08:29:30;6.63;;;3.72;;
71503;SDS011;59323;50.874;7.028;2023-05-14T08:31:55;8.43;;;4.37;;
71503;SDS011;59323;50.874;7.028;2023-05-14T08:34:24;8.90;;;4.47;;
71503;SDS011;59323;50.874;7.028;2023-05-14T08:36:50;6.23;;;3.50;;
71503;SDS011;59323;50.874;7.028;2023-05-14T08:39:18;7.55;;;4.30;;
71503;SDS011;59323;50.874;7.028;2023-05-14T08:41:44;9.07;;;4.27;;
71503;SDS011;59323;50.874;7.028;2023-05-14T08:44:13;6.05;;;4.00;;
71503;SDS011;59323;50.874;7.028;2023-05-14T08:46:49;7.38;;;4.13;;
71503;SDS011;59323;50.874;7.028;2023-05-14T08:52:00;8.35;;;4.78;;
71503;SDS011;59323;50.874;7.028;2023-05-14T08:54:26;8.87;;;4.33;;
71503;SDS011;59323;50.874;7.028;2023-05-14T08:56:52;7.07;;;4.32;;
71503;SDS011;59323;50.874;7.028;2023-05-14T08:59:18;7.73;;;3.93;;
71503;SDS011;59323;50.874;7.028;2023-05-14T09:01:45;8.02;;;3.90;;
71503;SDS011;59323;50.874;7.028;2023-05-14T09:04:15;6.40;;;4.07;;
71503;SDS011;59323;50.874;7.028;2023-05-14T09:06:44;7.57;;;4.50;;
71503;SDS011;59323;50.874;7.028;2023-05-14T09:09:16;7.90;;;3.75;;
71503;SDS011;59323;50.874;7.028;2023-05-14T09:11:44;6.67;;;4.10;;
71503;SDS011;59323;50.874;7.028;2023-05-14T09:14:11;7.97;;;4.07;;
71503;SDS011;59323;50.874;7.028;2023-05-14T09:16:36;6.40;;;3.60;;
71503;SDS011;59323;50.874;7.028;2023-05-14T09:19:05;5.50;;;3.40;;
71503;SDS011;59323;50.874;7.028;2023-05-14T09:21:31;6.45;;;3.90;;
71503;SDS011;59323;50.874;7.028;2023-05-14T09:23:56;7.17;;;3.63;;
71503;SDS011;59323;50.874;7.028;2023-05-14T09:26:23;6.40;;;3.70;;
71503;SDS011;59323;50.874;7.028;2023-05-14T09:28:56;6.03;;;3.80;;
71503;SDS011;59323;50.874;7.028;2023-05-14T09:31:25;7.82;;;3.95;;
71503;SDS011;59323;50.874;7.028;2023-05-14T09:33:51;6.67;;;4.20;;
71503;SDS011;59323;50.874;7.028;2023-05-14T09:36:17;7.57;;;4.00;;
71503;SDS011;59323;50.874;7.028;2023-05-14T09:38:43;6.13;;;3.93;;
71503;SDS011;59323;50.874;7.028;2023-05-14T09:41:09;5.55;;;3.83;;
71503;SDS011;59323;50.874;7.028;2023-05-14T09:43:35;7.60;;;4.10;;
71503;SDS011;59323;50.874;7.028;2023-05-14T09:46:00;6.78;;;3.72;;
71503;SDS011;59323;50.874;7.028;2023-05-14T09:48:27;7.00;;;3.57;;
71503;SDS011;59323;50.874;7.028;2023-05-14T09:50:52;6.47;;;3.60;;
71503;SDS011;59323;50.874;7.028;2023-05-14T09:53:18;5.60;;;3.60;;
71503;SDS011;59323;50.874;7.028;2023-05-14T09:55:43;8.50;;;3.97;;
71503;SDS011;59323;50.874;7.028;2023-05-14T09:58:09;7.73;;;3.77;;
71503;SDS011;59323;50.874;7.028;2023-05-14T10:00:41;6.70;;;3.77;;
71503;SDS011;59323;50.874;7.028;2023-05-14T10:03:09;7.60;;;3.60;;
71503;SDS011;59323;50.874;7.028;2023-05-14T10:05:39;6.82;;;4.25;;
71503;SDS011;59323;50.874;7.028;2023-05-14T10:08:11;8.90;;;4.07;;
71503;SDS011;59323;50.874;7.028;2023-05-14T10:10:41;8.63;;;4.22;;
71503;SDS011;59323;50.874;7.028;2023-05-14T10:13:10;7.47;;;3.90;;
71503;SDS011;59323;50.874;7.028;2023-05-14T10:15:39;6.80;;;3.88;;
71503;SDS011;59323;50.874;7.028;2023-05-14T10:18:08;6.97;;;3.73;;
71503;SDS011;59323;50.874;7.028;2023-05-14T10:20:35;8.30;;;3.92;;
71503;SDS011;59323;50.874;7.028;2023-05-14T10:23:02;5.63;;;3.97;;
71503;SDS011;59323;50.874;7.028;2023-05-14T10:25:30;7.93;;;3.60;;
71503;SDS011;59323;50.874;7.028;2023-05-14T10:27:56;6.13;;;3.47;;
71503;SDS011;59323;50.874;7.028;2023-05-14T10:30:22;5.28;;;3.28;;
71503;SDS011;59323;50.874;7.028;2023-05-14T10:32:48;7.50;;;3.57;;
71503;SDS011;59323;50.874;7.028;2023-05-14T10:35:17;5.53;;;3.70;;
71503;SDS011;59323;50.874;7.028;2023-05-14T10:37:46;5.97;;;3.50;;
71503;SDS011;59323;50.874;7.028;2023-05-14T10:40:15;6.30;;;3.67;;
71503;SDS011;59323;50.874;7.028;2023-05-14T10:42:42;6.20;;;4.47;;
71503;SDS011;59323;50.874;7.028;2023-05-14T10:45:14;5.87;;;3.43;;
71503;SDS011;59323;50.874;7.028;2023-05-14T10:47:44;6.88;;;3.85;;
71503;SDS011;59323;50.874;7.028;2023-05-14T10:50:11;6.07;;;3.70;;
71503;SDS011;59323;50.874;7.028;2023-05-14T10:52:42;6.07;;;3.30;;
71503;SDS011;59323;50.874;7.028;2023-05-14T10:55:08;7.38;;;3.42;;
71503;SDS011;59323;50.874;7.028;2023-05-14T10:57:38;6.35;;;3.70;;
71503;SDS011;59323;50.874;7.028;2023-05-14T11:00:06;6.93;;;4.18;;
71503;SDS011;59323;50.874;7.028;2023-05-14T11:02:36;6.50;;;3.88;;
71503;SDS011;59323;50.874;7.028;2023-05-14T11:07:36;7.93;;;3.80;;
71503;SDS011;59323;50.874;7.028;2023-05-14T11:12:40;6.57;;;3.83;;
71503;SDS011;59323;50.874;7.028;2023-05-14T11:15:08;6.18;;;3.47;;
71503;SDS011;59323;50.874;7.028;2023-05-14T11:17:34;5.50;;;3.30;;
71503;SDS011;59323;50.874;7.028;2023-05-14T11:20:01;5.57;;;2.97;;
71503;SDS011;59323;50.874;7.028;2023-05-14T11:22:26;5.20;;;3.63;;
71503;SDS011;59323;50.874;7.028;2023-05-14T11:24:52;6.47;;;3.50;;
71503;SDS011;59323;50.874;7.028;2023-05-14T11:27:18;5.45;;;3.55;;
71503;SDS011;59323;50.874;7.028;2023-05-14T11:29:45;7.13;;;4.10;;
71503;SDS011;59323;50.874;7.028;2023-05-14T11:32:12;8.45;;;4.85;;
71503;SDS011;59323;50.874;7.028;2023-05-14T11:34:38;7.60;;;4.65;;
71503;SDS011;59323;50.874;7.028;2023-05-14T11:37:04;7.77;;;4.97;;
71503;SDS011;59323;50.874;7.028;2023-05-14T11:39:30;7.88;;;4.85;;
71503;SDS011;59323;50.874;7.028;2023-05-14T11:41:57;9.25;;;5.10;;
71503;SDS011;59323;50.874;7.028;2023-05-14T11:44:30;8.70;;;5.10;;
71503;SDS011;59323;50.874;7.028;2023-05-14T11:46:56;7.38;;;4.60;;
71503;SDS011;59323;50.874;7.028;2023-05-14T11:49:22;9.73;;;4.80;;
71503;SDS011;59323;50.874;7.028;2023-05-14T11:51:49;7.85;;;4.68;;
71503;SDS011;59323;50.874;7.028;2023-05-14T11:54:21;8.43;;;4.78;;
71503;SDS011;59323;50.874;7.028;2023-05-14T11:56:49;14.23;;;5.30;;
71503;SDS011;59323;50.874;7.028;2023-05-14T11:59:15;7.72;;;4.38;;
71503;SDS011;59323;50.874;7.028;2023-05-14T12:01:42;8.23;;;4.00;;
71503;SDS011;59323;50.874;7.028;2023-05-14T12:04:09;8.45;;;4.15;;
71503;SDS011;59323;50.874;7.028;2023-05-14T12:06:34;6.83;;;3.97;;
71503;SDS011;59323;50.874;7.028;2023-05-14T12:08:59;8.70;;;4.60;;
71503;SDS011;59323;50.874;7.028;2023-05-14T12:11:29;7.20;;;4.07;;
71503;SDS011;59323;50.874;7.028;2023-05-14T12:13:55;7.17;;;4.30;;
71503;SDS011;59323;50.874;7.028;2023-05-14T12:16:21;8.32;;;4.50;;
71503;SDS011;59323;50.874;7.028;2023-05-14T12:18:46;7.57;;;3.70;;
71503;SDS011;59323;50.874;7.028;2023-05-14T12:21:12;8.70;;;3.87;;
71503;SDS011;59323;50.874;7.028;2023-05-14T12:23:37;6.70;;;3.60;;
71503;SDS011;59323;50.874;7.028;2023-05-14T12:26:04;6.85;;;3.90;;
71503;SDS011;59323;50.874;7.028;2023-05-14T12:28:31;7.53;;;3.92;;
71503;SDS011;59323;50.874;7.028;2023-05-14T12:30:57;7.45;;;3.63;;
71503;SDS011;59323;50.874;7.028;2023-05-14T12:33:24;5.93;;;3.42;;
71503;SDS011;59323;50.874;7.028;2023-05-14T12:35:51;7.90;;;4.33;;
71503;SDS011;59323;50.874;7.028;2023-05-14T12:38:35;10.02;;;4.25;;
71503;SDS011;59323;50.874;7.028;2023-05-14T12:41:01;6.57;;;4.33;;
71503;SDS011;59323;50.874;7.028;2023-05-14T12:43:26;11.73;;;4.67;;
71503;SDS011;59323;50.874;7.028;2023-05-14T12:45:55;8.40;;;3.80;;
71503;SDS011;59323;50.874;7.028;2023-05-14T12:48:20;7.97;;;4.30;;
71503;SDS011;59323;50.874;7.028;2023-05-14T12:50:46;9.27;;;4.50;;
71503;SDS011;59323;50.874;7.028;2023-05-14T12:53:12;8.32;;;4.53;;
71503;SDS011;59323;50.874;7.028;2023-05-14T12:55:40;7.80;;;4.22;;
71503;SDS011;59323;50.874;7.028;2023-05-14T12:58:05;9.10;;;3.63;;
71503;SDS011;59323;50.874;7.028;2023-05-14T13:00:30;8.13;;;4.87;;
71503;SDS011;59323;50.874;7.028;2023-05-14T13:02:56;7.53;;;4.70;;
71503;SDS011;59323;50.874;7.028;2023-05-14T13:05:21;10.80;;;4.30;;
71503;SDS011;59323;50.874;7.028;2023-05-14T13:07:47;13.20;;;4.22;;
71503;SDS011;59323;50.874;7.028;2023-05-14T13:10:12;7.63;;;3.90;;
71503;SDS011;59323;50.874;7.028;2023-05-14T13:12:38;9.20;;;4.60;;
71503;SDS011;59323;50.874;7.028;2023-05-14T13:15:03;7.30;;;4.10;;
71503;SDS011;59323;50.874;7.028;2023-05-14T13:17:29;7.17;;;3.73;;
71503;SDS011;59323;50.874;7.028;2023-05-14T13:19:54;7.00;;;3.87;;
71503;SDS011;59323;50.874;7.028;2023-05-14T13:22:20;5.97;;;3.60;;
71503;SDS011;59323;50.874;7.028;2023-05-14T13:24:45;9.50;;;4.10;;
71503;SDS011;59323;50.874;7.028;2023-05-14T13:27:10;8.00;;;3.60;;
71503;SDS011;59323;50.874;7.028;2023-05-14T13:29:36;7.57;;;3.87;;
71503;SDS011;59323;50.874;7.028;2023-05-14T13:32:01;7.05;;;3.45;;
71503;SDS011;59323;50.874;7.028;2023-05-14T13:34:27;6.17;;;3.77;;
71503;SDS011;59323;50.874;7.028;2023-05-14T13:36:52;6.80;;;3.77;;
71503;SDS011;59323;50.874;7.028;2023-05-14T13:39:17;5.80;;;3.37;;
71503;SDS011;59323;50.874;7.028;2023-05-14T13:41:46;5.85;;;3.20;;
71503;SDS011;59323;50.874;7.028;2023-05-14T13:44:12;6.78;;;3.15;;
71503;SDS011;59323;50.874;7.028;2023-05-14T13:46:37;6.10;;;3.30;;
71503;SDS011;59323;50.874;7.028;2023-05-14T13:49:02;5.53;;;3.03;;
71503;SDS011;59323;50.874;7.028;2023-05-14T13:51:28;6.17;;;3.53;;
71503;SDS011;59323;50.874;7.028;2023-05-14T13:53:53;7.13;;;3.77;;
71503;SDS011;59323;50.874;7.028;2023-05-14T13:56:18;5.07;;;2.63;;
71503;SDS011;59323;50.874;7.028;2023-05-14T13:58:45;5.47;;;2.40;;
71503;SDS011;59323;50.874;7.028;2023-05-14T14:01:10;5.57;;;2.43;;
71503;SDS011;59323;50.874;7.028;2023-05-14T14:03:36;5.30;;;2.67;;
71503;SDS011;59323;50.874;7.028;2023-05-14T14:06:01;4.87;;;2.43;;
71503;SDS011;59323;50.874;7.028;2023-05-14T14:08:26;4.47;;;2.47;;
71503;SDS011;59323;50.874;7.028;2023-05-14T14:10:52;5.47;;;2.47;;
71503;SDS011;59323;50.874;7.028;2023-05-14T14:13:19;4.78;;;2.75;;
71503;SDS011;59323;50.874;7.028;2023-05-14T14:15:45;5.17;;;2.43;;
71503;SDS011;59323;50.874;7.028;2023-05-14T14:18:10;5.03;;;2.90;;
71503;SDS011;59323;50.874;7.028;2023-05-14T14:20:35;4.93;;;2.63;;
71503;SDS011;59323;50.874;7.028;2023-05-14T14:23:01;4.60;;;2.33;;
71503;SDS011;59323;50.874;7.028;2023-05-14T14:25:26;9.07;;;2.60;;
71503;SDS011;59323;50.874;7.028;2023-05-14T14:27:51;6.27;;;3.00;;
71503;SDS011;59323;50.874;7.028;2023-05-14T14:30:17;6.43;;;2.30;;
71503;SDS011;59323;50.874;7.028;2023-05-14T14:32:46;6.38;;;2.55;;
71503;SDS011;59323;50.874;7.028;2023-05-14T14:35:14;7.30;;;2.80;;
71503;SDS011;59323;50.874;7.028;2023-05-14T14:37:40;5.30;;;2.35;;
71503;SDS011;59323;50.874;7.028;2023-05-14T14:40:09;7.20;;;2.30;;
71503;SDS011;59323;50.874;7.028;2023-05-14T14:42:35;5.03;;;2.22;;
71503;SDS011;59323;50.874;7.028;2023-05-14T14:45:01;6.32;;;2.92;;
71503;SDS011;59323;50.874;7.028;2023-05-14T14:47:30;5.82;;;2.80;;
71503;SDS011;59323;50.874;7.028;2023-05-14T14:49:56;4.73;;;2.27;;